Terminal Aerodrome Forecast
Issued by NWS North Platte, NE

Home | Current Version | Previous Version | Graphics & Text | Print | Product List | Glossary On
Versions: 1 2 3 4 5 6 7 8 9 10 11 12 13 14 15 16 17 18 19 20 21
969
FTUS43 KLBF 290029 AAA
TAFVTN
TAF AMD
KVTN 290029Z 2900/2924 VRB05KT P6SM VCSH SCT040 BKN110
      TEMPO 2900/2902 VRB12G23KT 6SM -TSRA BKN040CB OVC100
     FM290300 VRB04KT P6SM SCT050 SCT100 BKN250
     FM290800 VRB03KT 3SM BR BKN015
     FM291400 18005KT P6SM FEW015 SCT050 BKN100
     FM291800 16008KT P6SM BKN050=

USA.gov is the U.S. government's official web portal to all federal, state and local government web resources and services.